Portada
METAR-TAF:

METAR-TAF

Aeroports :

Tsushima, Japó

latitud: 34-17N, longitud: 129-20E, altitud: 63 m

Observació

L'informe es va fer fa 37 minuts, a les 01:00 UTC
Vent 10 kt del Sud/Sud-Est, variant entre Sud-Est i Sud-Oest
Temperatura 15°C
Humitat 88%
Pressió 1015 hPa
Visibilitat: 8000 m
Escasses núvols a una alçada de 3000 ft
Cel ennuvolat

METAR: RJDT 200100Z 16010KT 130V220 8000 FEW030 BKN/// 15/13 Q1015

Hora: 10:37 (01:37 UTC)


TAF: manca

Observacions i pronòstics meteorològics de més de 4000 aeroports (METAR i TAF).

Les estacions disponibles són els punts grocs i vermells al mapa.

Posi el ratolí al punt desitjat per veure el nom de l'estació.

Feu clic per veure les observacions i els pronòstics meteorològics.

Per canviar el mapa: feu clic els botons verds amb una creu de color negre per apropar; al botó verd amb un guió per allunyar la imatge; o en les fletxes verdes per a mapes adjacents.


METAR-TAF: